createdAt,value
2017-11-07T00:00:55.581Z,101390.64
2017-11-07T00:02:02.106Z,101389.84
2017-11-07T00:03:07.870Z,101384.91
2017-11-07T00:04:13.625Z,101389.13
2017-11-07T00:05:19.989Z,101393.89
2017-11-07T00:06:26.514Z,101389.03
2017-11-07T00:07:32.264Z,101392.91
2017-11-07T00:08:38.064Z,101387.66
2017-11-07T00:09:43.916Z,101389.92
2017-11-07T00:10:49.700Z,101396.08
2017-11-07T00:11:55.269Z,101391.50
2017-11-07T00:13:00.819Z,101394.77
2017-11-07T00:14:06.397Z,101392.75
2017-11-07T00:15:12.200Z,101394.04
2017-11-07T00:16:17.809Z,101392.68
2017-11-07T00:17:24.133Z,101385.46
2017-11-07T00:18:29.892Z,101384.95
2017-11-07T00:19:35.720Z,101391.45
2017-11-07T00:20:41.493Z,101385.69
2017-11-07T00:21:48.047Z,101386.42
2017-11-07T00:22:53.804Z,101386.44
2017-11-07T00:23:59.556Z,101388.17
2017-11-07T00:25:05.307Z,101384.98
2017-11-07T00:26:11.067Z,101384.81
2017-11-07T00:27:16.877Z,101384.46
2017-11-07T00:28:22.657Z,101381.72
2017-11-07T00:29:28.418Z,101377.99
2017-11-07T00:30:34.207Z,101379.23
2017-11-07T00:31:39.953Z,101371.47
2017-11-07T00:32:45.741Z,101377.91
2017-11-07T00:33:51.295Z,101371.83
2017-11-07T00:34:57.621Z,101379.23
2017-11-07T00:36:03.381Z,101372.63
2017-11-07T00:37:09.140Z,101373.06
2017-11-07T00:38:15.690Z,101373.48
2017-11-07T00:39:22.208Z,101375.09
2017-11-07T00:40:27.965Z,101376.27
2017-11-07T00:41:33.713Z,101371.39
2017-11-07T00:42:39.493Z,101377.58
2017-11-07T00:43:46.028Z,101380.31
2017-11-07T00:44:51.780Z,101373.51
2017-11-07T00:45:58.313Z,101379.15
2017-11-07T00:47:03.877Z,101376.96
2017-11-07T00:48:10.468Z,101385.13
2017-11-07T00:49:16.241Z,101385.99
2017-11-07T00:50:21.998Z,101377.70
2017-11-07T00:51:27.751Z,101383.38
2017-11-07T00:52:33.300Z,101386.52
2017-11-07T00:53:39.821Z,101390.80
2017-11-07T00:54:45.600Z,101392.98
2017-11-07T00:55:51.317Z,101390.34
2017-11-07T00:56:57.073Z,101393.34
2017-11-07T00:58:02.845Z,101392.59
2017-11-07T00:59:09.005Z,101395.45
2017-11-07T01:00:14.780Z,101391.22
2017-11-07T01:01:20.534Z,101393.66
2017-11-07T01:02:26.296Z,101393.41
2017-11-07T01:03:32.819Z,101397.09
2017-11-07T01:04:38.632Z,101393.98
2017-11-07T01:05:44.425Z,101393.73
2017-11-07T01:06:50.181Z,101392.00
2017-11-07T01:07:56.705Z,101392.25
2017-11-07T01:09:02.467Z,101390.05
2017-11-07T01:10:08.223Z,101390.06
2017-11-07T01:11:14.781Z,101389.03
2017-11-07T01:12:21.305Z,101396.50
2017-11-07T01:13:27.053Z,101388.17
2017-11-07T01:14:32.798Z,101390.19
2017-11-07T01:15:38.562Z,101391.30
2017-11-07T01:16:44.127Z,101385.56
2017-11-07T01:17:50.641Z,101387.30
2017-11-07T01:18:56.416Z,101383.08
2017-11-07T01:20:02.946Z,101382.50
2017-11-07T01:21:08.695Z,101383.59
2017-11-07T01:22:14.478Z,101380.05
2017-11-07T01:23:20.232Z,101383.47
2017-11-07T01:24:25.984Z,101378.16
2017-11-07T01:25:31.533Z,101379.69
2017-11-07T01:26:37.343Z,101375.53
2017-11-07T01:27:43.117Z,101373.99
2017-11-07T01:28:48.872Z,101368.17
2017-11-07T01:29:54.278Z,101369.33
2017-11-07T01:30:59.690Z,101370.00
2017-11-07T01:32:05.440Z,101369.25
2017-11-07T01:33:11.208Z,101367.45
2017-11-07T01:34:16.751Z,101366.63
2017-11-07T01:35:22.505Z,101370.80
2017-11-07T01:36:28.264Z,101371.20
2017-11-07T01:37:34.033Z,101368.23
2017-11-07T01:38:39.816Z,101365.41
2017-11-07T01:39:45.582Z,101375.38
2017-11-07T01:40:51.078Z,101364.66
2017-11-07T01:41:56.854Z,101370.44
2017-11-07T01:43:02.289Z,101368.98
2017-11-07T01:44:08.057Z,101368.45
2017-11-07T01:45:14.077Z,101362.72
2017-11-07T01:46:19.830Z,101361.27
2017-11-07T01:47:25.584Z,101362.50
2017-11-07T01:48:32.103Z,101368.73
2017-11-07T01:49:37.892Z,101364.04
2017-11-07T01:50:44.409Z,101362.95
2017-11-07T01:51:50.163Z,101360.45
2017-11-07T01:52:55.904Z,101359.88
2017-11-07T01:54:01.652Z,101357.45
2017-11-07T01:55:08.197Z,101352.57
2017-11-07T01:56:13.604Z,101352.52
2017-11-07T01:57:19.349Z,101345.22
2017-11-07T01:58:24.918Z,101347.97
2017-11-07T01:59:30.677Z,101351.84
2017-11-07T02:00:37.758Z,101351.61
2017-11-07T02:01:44.264Z,101351.77
2017-11-07T02:02:50.017Z,101353.05
2017-11-07T02:03:55.824Z,101352.64
2017-11-07T02:05:01.585Z,101354.58
2017-11-07T02:06:07.401Z,101348.70
2017-11-07T02:07:13.161Z,101351.20
2017-11-07T02:08:18.925Z,101355.34
2017-11-07T02:09:24.678Z,101356.81
2017-11-07T02:10:30.292Z,101360.60
2017-11-07T02:11:36.080Z,101365.06
2017-11-07T02:12:42.616Z,101363.80
2017-11-07T02:13:48.363Z,101360.66
2017-11-07T02:14:54.123Z,101360.81
2017-11-07T02:16:00.665Z,101352.75
2017-11-07T02:17:07.223Z,101354.99
2017-11-07T02:18:12.984Z,101356.33
2017-11-07T02:19:18.810Z,101357.92
2017-11-07T02:20:24.566Z,101359.95
2017-11-07T02:21:29.968Z,101366.71
2017-11-07T02:22:35.067Z,101370.44
2017-11-07T02:23:40.480Z,101368.39
2017-11-07T02:24:46.235Z,101367.02
2017-11-07T02:25:51.285Z,101364.91
2017-11-07T02:26:56.692Z,101366.14
2017-11-07T02:28:02.468Z,101366.86
2017-11-07T02:29:07.529Z,101370.16
2017-11-07T02:30:13.366Z,101367.04
2017-11-07T02:31:18.774Z,101366.45
2017-11-07T02:32:24.762Z,101363.02
2017-11-07T02:33:31.336Z,101363.25
2017-11-07T02:34:36.560Z,101366.31
2017-11-07T02:35:43.076Z,101367.02
2017-11-07T02:36:48.818Z,101371.32
2017-11-07T02:37:53.880Z,101373.72
2017-11-07T02:38:59.660Z,101373.70
2017-11-07T02:40:04.493Z,101376.55
2017-11-07T02:41:10.266Z,101376.25
2017-11-07T02:42:16.464Z,101371.82
2017-11-07T02:43:22.973Z,101368.76
2017-11-07T02:44:28.769Z,101365.00
2017-11-07T02:45:34.507Z,101367.97
2017-11-07T02:46:41.021Z,101367.40
2017-11-07T02:47:47.193Z,101360.86
2017-11-07T02:48:52.956Z,101363.53
2017-11-07T02:49:58.725Z,101367.80
2017-11-07T02:51:04.493Z,101366.24
2017-11-07T02:52:10.220Z,101368.13
2017-11-07T02:53:15.982Z,101358.09
2017-11-07T02:54:22.507Z,101365.01
2017-11-07T02:55:28.284Z,101361.06
2017-11-07T02:56:34.801Z,101369.04
2017-11-07T02:57:40.557Z,101360.19
2017-11-07T02:58:46.308Z,101359.38
2017-11-07T02:59:51.714Z,101357.84
2017-11-07T03:00:57.497Z,101362.37
2017-11-07T03:02:03.268Z,101363.45
2017-11-07T03:03:09.024Z,101362.22
2017-11-07T03:04:14.769Z,101368.69
2017-11-07T03:05:20.517Z,101367.08
2017-11-07T03:06:26.291Z,101366.38
2017-11-07T03:07:32.048Z,101351.69
2017-11-07T03:08:38.561Z,101351.25
2017-11-07T03:09:44.465Z,101357.14
2017-11-07T03:10:51.057Z,101355.83
2017-11-07T03:11:57.006Z,101352.56
2017-11-07T03:13:02.845Z,101351.98
2017-11-07T03:14:08.672Z,101353.84
2017-11-07T03:15:15.180Z,101346.95
2017-11-07T03:16:20.925Z,101347.89
2017-11-07T03:17:26.716Z,101349.42
2017-11-07T03:18:32.473Z,101348.54
2017-11-07T03:19:38.225Z,101349.34
2017-11-07T03:20:43.984Z,101348.84
2017-11-07T03:21:49.727Z,101352.46
2017-11-07T03:22:55.320Z,101349.13
2017-11-07T03:24:01.073Z,101342.23
2017-11-07T03:25:06.825Z,101345.49
2017-11-07T03:26:12.568Z,101340.04
2017-11-07T03:27:18.324Z,101332.77
2017-11-07T03:28:24.099Z,101336.39
2017-11-07T03:29:30.624Z,101339.48
2017-11-07T03:30:36.369Z,101335.75
2017-11-07T03:31:41.914Z,101340.11
2017-11-07T03:32:47.682Z,101343.09
2017-11-07T03:33:54.228Z,101342.37
2017-11-07T03:34:59.976Z,101340.53
2017-11-07T03:36:06.508Z,101341.70
2017-11-07T03:37:12.257Z,101343.68
2017-11-07T03:38:18.019Z,101343.88
2017-11-07T03:39:23.793Z,101340.78
2017-11-07T03:40:29.540Z,101339.38
2017-11-07T03:41:35.275Z,101339.33
2017-11-07T03:42:41.044Z,101337.80
2017-11-07T03:43:46.788Z,101337.72
2017-11-07T03:44:52.572Z,101340.40
2017-11-07T03:45:58.320Z,101334.22
2017-11-07T03:47:04.847Z,101338.45
2017-11-07T03:48:10.600Z,101335.16
2017-11-07T03:49:17.851Z,101341.22
2017-11-07T03:50:23.641Z,101332.42
2017-11-07T03:51:30.162Z,101336.79
2017-11-07T03:52:35.916Z,101332.92
2017-11-07T03:53:41.684Z,101333.88
2017-11-07T03:54:47.430Z,101336.91
2017-11-07T03:55:53.719Z,101331.01
2017-11-07T03:56:59.480Z,101334.94
2017-11-07T03:58:06.004Z,101329.47
2017-11-07T03:59:12.239Z,101332.02
2017-11-07T04:00:17.998Z,101332.02
2017-11-07T04:01:23.777Z,101328.23
2017-11-07T04:02:29.541Z,101325.05
2017-11-07T04:03:35.294Z,101322.75
2017-11-07T04:04:42.089Z,101319.77
2017-11-07T04:05:47.834Z,101321.50
2017-11-07T04:06:53.617Z,101318.45
2017-11-07T04:08:00.669Z,101324.54
2017-11-07T04:09:05.741Z,101320.91
2017-11-07T04:10:12.522Z,101316.91
2017-11-07T04:11:18.277Z,101316.03
2017-11-07T04:12:24.064Z,101311.01
2017-11-07T04:13:29.909Z,101304.87
2017-11-07T04:14:35.661Z,101312.41
2017-11-07T04:15:42.197Z,101307.16
2017-11-07T04:16:47.970Z,101306.52
2017-11-07T04:17:54.523Z,101304.63
2017-11-07T04:19:00.285Z,101304.81
2017-11-07T04:20:06.061Z,101302.42
2017-11-07T04:21:11.821Z,101300.53
2017-11-07T04:22:17.572Z,101306.02
2017-11-07T04:23:23.353Z,101302.63
2017-11-07T04:24:29.120Z,101301.39
2017-11-07T04:25:34.883Z,101293.09
2017-11-07T04:26:40.648Z,101294.55
2017-11-07T04:27:46.658Z,101293.31
2017-11-07T04:28:52.428Z,101300.78
2017-11-07T04:29:58.188Z,101299.88
2017-11-07T04:31:05.437Z,101300.61
2017-11-07T04:32:11.205Z,101298.33
2017-11-07T04:33:16.954Z,101294.70
2017-11-07T04:34:23.508Z,101289.48
2017-11-07T04:35:30.036Z,101293.19
2017-11-07T04:36:35.792Z,101291.48
2017-11-07T04:37:41.223Z,101291.00
2017-11-07T04:38:47.020Z,101292.03
2017-11-07T04:39:52.794Z,101285.28
2017-11-07T04:40:58.545Z,101286.44
2017-11-07T04:42:04.056Z,101286.21
2017-11-07T04:43:09.884Z,101290.48
2017-11-07T04:44:15.625Z,101287.54
2017-11-07T04:45:21.657Z,101283.11
2017-11-07T04:46:27.424Z,101283.17
2017-11-07T04:47:33.185Z,101286.08
2017-11-07T04:48:38.928Z,101287.81
2017-11-07T04:49:44.685Z,101287.23
2017-11-07T04:50:50.465Z,101277.94
2017-11-07T04:51:56.218Z,101288.05
2017-11-07T04:53:01.978Z,101282.39
2017-11-07T04:54:07.731Z,101283.39
2017-11-07T04:55:13.477Z,101288.47
2017-11-07T04:56:19.252Z,101286.73
2017-11-07T04:57:25.777Z,101284.34
2017-11-07T04:58:31.527Z,101284.63
2017-11-07T04:59:37.317Z,101284.12
2017-11-07T05:00:43.854Z,101275.77
2017-11-07T05:01:50.397Z,101281.86
2017-11-07T05:02:56.260Z,101283.59
2017-11-07T05:04:02.773Z,101279.97
2017-11-07T05:05:08.530Z,101280.64
2017-11-07T05:06:14.460Z,101283.97
2017-11-07T05:07:20.265Z,101279.16
2017-11-07T05:08:26.772Z,101281.58
2017-11-07T05:09:32.541Z,101287.11
2017-11-07T05:10:38.308Z,101275.03
2017-11-07T05:11:44.062Z,101288.48
2017-11-07T05:12:49.848Z,101288.03
2017-11-07T05:13:55.621Z,101287.88
2017-11-07T05:15:02.147Z,101290.93
2017-11-07T05:16:07.717Z,101283.31
2017-11-07T05:17:14.232Z,101285.29
2017-11-07T05:18:20.020Z,101285.87
2017-11-07T05:19:26.764Z,101291.18
2017-11-07T05:20:32.512Z,101282.17
2017-11-07T05:21:38.300Z,101292.19
2017-11-07T05:22:44.073Z,101283.54
2017-11-07T05:23:49.849Z,101286.58
2017-11-07T05:24:56.364Z,101288.55
2017-11-07T05:26:02.109Z,101287.47
2017-11-07T05:27:07.865Z,101285.15
2017-11-07T05:28:13.621Z,101289.62
2017-11-07T05:29:19.201Z,101287.69
2017-11-07T05:30:24.953Z,101286.96
2017-11-07T05:31:30.982Z,101291.95
2017-11-07T05:32:36.742Z,101289.07
2017-11-07T05:33:42.505Z,101289.85
2017-11-07T05:34:48.288Z,101287.97
2017-11-07T05:35:54.900Z,101289.92
2017-11-07T05:37:00.657Z,101284.27
2017-11-07T05:38:06.404Z,101290.86
2017-11-07T05:39:12.232Z,101290.80
2017-11-07T05:40:18.004Z,101293.70
2017-11-07T05:41:23.789Z,101289.20
2017-11-07T05:42:29.558Z,101291.59
2017-11-07T05:43:35.352Z,101285.50
2017-11-07T05:44:41.861Z,101283.04
2017-11-07T05:45:47.295Z,101285.50
2017-11-07T05:46:52.696Z,101285.98
2017-11-07T05:47:58.108Z,101285.35
2017-11-07T05:49:04.690Z,101286.06
2017-11-07T05:50:10.096Z,101285.55
2017-11-07T05:51:15.949Z,101291.16
2017-11-07T05:52:22.424Z,101285.95
2017-11-07T05:53:28.323Z,101289.34
2017-11-07T05:54:34.084Z,101285.28
2017-11-07T05:55:40.606Z,101277.48
2017-11-07T05:56:46.397Z,101282.31
2017-11-07T05:57:52.571Z,101281.73
2017-11-07T05:58:58.341Z,101286.06
2017-11-07T06:00:03.674Z,101283.84
2017-11-07T06:01:09.697Z,101289.80
2017-11-07T06:02:15.481Z,101282.06
2017-11-07T06:03:21.270Z,101280.27
2017-11-07T06:04:28.796Z,101279.55
2017-11-07T06:05:34.541Z,101273.86
2017-11-07T06:06:40.305Z,101286.06
2017-11-07T06:07:46.854Z,101279.39
2017-11-07T06:08:52.598Z,101276.00
2017-11-07T06:09:59.124Z,101275.92
2017-11-07T06:11:04.881Z,101283.03
2017-11-07T06:12:10.632Z,101280.05
2017-11-07T06:13:17.191Z,101281.14
2017-11-07T06:14:22.941Z,101280.64
2017-11-07T06:15:29.256Z,101272.88
2017-11-07T06:16:35.768Z,101276.14
2017-11-07T06:17:42.297Z,101279.97
2017-11-07T06:18:48.061Z,101273.87
2017-11-07T06:19:54.582Z,101271.55
2017-11-07T06:21:00.154Z,101281.15
2017-11-07T06:22:05.918Z,101279.47
2017-11-07T06:23:12.432Z,101273.86
2017-11-07T06:24:18.038Z,101266.11
2017-11-07T06:25:24.078Z,101265.03
2017-11-07T06:26:29.821Z,101269.36
2017-11-07T06:27:35.584Z,101273.53
2017-11-07T06:28:41.138Z,101267.80
2017-11-07T06:29:46.939Z,101262.56
2017-11-07T06:30:52.553Z,101263.50
2017-11-07T06:31:59.069Z,101253.84
2017-11-07T06:33:04.270Z,101259.20
2017-11-07T06:34:10.030Z,101259.55
2017-11-07T06:35:15.816Z,101261.08
2017-11-07T06:36:22.152Z,101256.66
2017-11-07T06:37:27.900Z,101252.14
2017-11-07T06:38:34.432Z,101256.37
2017-11-07T06:39:40.187Z,101254.20
2017-11-07T06:40:45.968Z,101257.37
2017-11-07T06:41:52.496Z,101252.22
2017-11-07T06:42:58.262Z,101255.78
2017-11-07T06:44:04.443Z,101258.75
2017-11-07T06:45:09.847Z,101261.22
2017-11-07T06:46:15.620Z,101266.09
2017-11-07T06:47:21.373Z,101265.31
2017-11-07T06:48:27.401Z,101266.38
2017-11-07T06:49:33.155Z,101267.58
2017-11-07T06:50:39.029Z,101265.72
2017-11-07T06:51:44.805Z,101268.51
2017-11-07T06:52:51.350Z,101263.56
2017-11-07T06:53:57.098Z,101263.28
2017-11-07T06:55:02.859Z,101260.14
2017-11-07T06:56:09.380Z,101261.32
2017-11-07T06:57:15.262Z,101258.28
2017-11-07T06:58:21.891Z,101261.16
2017-11-07T06:59:27.684Z,101263.20
2017-11-07T07:00:33.936Z,101265.38
2017-11-07T07:01:39.760Z,101261.08
2017-11-07T07:02:46.460Z,101261.45
2017-11-07T07:03:53.356Z,101265.30
2017-11-07T07:04:59.256Z,101264.66
2017-11-07T07:06:05.013Z,101259.28
2017-11-07T07:07:10.775Z,101266.05
2017-11-07T07:08:16.628Z,101260.23
2017-11-07T07:09:22.793Z,101256.73
2017-11-07T07:10:28.651Z,101258.25
2017-11-07T07:11:35.564Z,101256.23
2017-11-07T07:12:41.593Z,101252.16
2017-11-07T07:13:47.393Z,101256.73
2017-11-07T07:14:53.145Z,101254.47
2017-11-07T07:15:59.669Z,101249.18
2017-11-07T07:17:05.437Z,101249.23
2017-11-07T07:18:12.703Z,101249.10
2017-11-07T07:19:18.802Z,101256.28
2017-11-07T07:20:24.574Z,101249.18
2017-11-07T07:21:30.325Z,101243.72
2017-11-07T07:22:36.266Z,101244.36
2017-11-07T07:23:42.022Z,101240.02
2017-11-07T07:24:47.855Z,101240.66
2017-11-07T07:25:53.602Z,101235.93
2017-11-07T07:26:59.149Z,101241.53
2017-11-07T07:28:04.920Z,101241.11
2017-11-07T07:29:11.445Z,101237.91
2017-11-07T07:30:17.214Z,101235.85
2017-11-07T07:31:23.740Z,101235.59
2017-11-07T07:32:29.500Z,101231.25
2017-11-07T07:33:35.481Z,101232.89
2017-11-07T07:34:41.240Z,101232.01
2017-11-07T07:35:47.050Z,101234.48
2017-11-07T07:36:53.223Z,101240.30
2017-11-07T07:37:58.970Z,101232.02
2017-11-07T07:39:04.297Z,101240.80
2017-11-07T07:40:10.143Z,101235.80
2017-11-07T07:41:15.924Z,101243.15
2017-11-07T07:42:22.593Z,101238.29
2017-11-07T07:43:28.695Z,101235.14
2017-11-07T07:44:34.452Z,101237.47
2017-11-07T07:45:40.214Z,101241.02
2017-11-07T07:46:45.995Z,101240.38
2017-11-07T07:47:52.528Z,101243.13
2017-11-07T07:48:58.318Z,101242.33
2017-11-07T07:50:03.813Z,101249.45
2017-11-07T07:51:09.597Z,101247.88
2017-11-07T07:52:15.442Z,101255.05
2017-11-07T07:53:21.255Z,101247.34
2017-11-07T07:54:27.764Z,101248.13
2017-11-07T07:55:33.517Z,101249.30
2017-11-07T07:56:39.299Z,101253.00
2017-11-07T07:57:45.853Z,101249.81
2017-11-07T07:58:51.645Z,101251.13
2017-11-07T07:59:57.406Z,101244.98
2017-11-07T08:01:03.164Z,101247.18
2017-11-07T08:02:08.920Z,101247.20
2017-11-07T08:03:15.486Z,101247.41
2017-11-07T08:04:22.010Z,101240.81
2017-11-07T08:05:27.088Z,101248.45
2017-11-07T08:06:33.220Z,101245.80
2017-11-07T08:07:40.496Z,101247.02
2017-11-07T08:08:46.101Z,101246.57
2017-11-07T08:09:51.857Z,101254.66
2017-11-07T08:10:57.362Z,101250.28
2017-11-07T08:12:02.768Z,101248.66
2017-11-07T08:13:08.571Z,101250.60
2017-11-07T08:14:15.759Z,101252.55
2017-11-07T08:15:22.120Z,101251.48
2017-11-07T08:16:27.933Z,101249.84
2017-11-07T08:17:33.727Z,101245.62
2017-11-07T08:18:40.529Z,101242.75
2017-11-07T08:19:46.389Z,101236.00
2017-11-07T08:20:52.150Z,101235.10
2017-11-07T08:21:58.668Z,101231.66
2017-11-07T08:23:04.440Z,101230.66
2017-11-07T08:24:10.202Z,101225.36
2017-11-07T08:25:16.995Z,101223.33
2017-11-07T08:26:23.247Z,101229.77
2017-11-07T08:27:29.475Z,101227.04
2017-11-07T08:28:36.365Z,101230.25
2017-11-07T08:29:42.393Z,101224.48
2017-11-07T08:30:49.042Z,101232.52
2017-11-07T08:31:55.738Z,101232.36
2017-11-07T08:33:01.736Z,101227.69
2017-11-07T08:34:07.532Z,101226.91
2017-11-07T08:35:13.585Z,101237.03
2017-11-07T08:36:19.591Z,101233.77
2017-11-07T08:37:26.286Z,101227.34
2017-11-07T08:38:32.336Z,101227.42
2017-11-07T08:39:38.188Z,101232.47
2017-11-07T08:40:43.946Z,101226.16
2017-11-07T08:41:49.726Z,101226.67
2017-11-07T08:42:55.712Z,101230.31
2017-11-07T08:44:01.553Z,101231.83
2017-11-07T08:45:07.462Z,101229.80
2017-11-07T08:46:14.084Z,101225.42
2017-11-07T08:47:20.010Z,101232.28
2017-11-07T08:48:25.650Z,101234.34
2017-11-07T08:49:31.426Z,101233.58
2017-11-07T08:50:37.370Z,101233.03
2017-11-07T08:51:43.220Z,101226.59
2017-11-07T08:52:49.325Z,101226.60
2017-11-07T08:53:55.361Z,101226.11
2017-11-07T08:55:02.120Z,101228.40
2017-11-07T08:56:08.089Z,101224.47
2017-11-07T08:57:13.957Z,101235.07
2017-11-07T08:58:20.078Z,101231.37
2017-11-07T08:59:26.332Z,101235.92
2017-11-07T09:00:32.312Z,101227.52
2017-11-07T09:01:38.633Z,101230.25
2017-11-07T09:02:44.478Z,101224.42
2017-11-07T09:03:50.302Z,101216.81
2017-11-07T09:04:56.860Z,101217.86
2017-11-07T09:06:03.495Z,101214.58
2017-11-07T09:07:09.456Z,101215.06
2017-11-07T09:08:16.077Z,101213.98
2017-11-07T09:09:21.634Z,101213.87
2017-11-07T09:10:27.676Z,101215.91
2017-11-07T09:11:33.621Z,101211.61
2017-11-07T09:12:41.254Z,101211.44
2017-11-07T09:13:47.056Z,101203.66
2017-11-07T09:14:53.032Z,101204.59
2017-11-07T09:15:59.178Z,101210.77
2017-11-07T09:17:05.868Z,101211.78
2017-11-07T09:18:11.781Z,101204.11
2017-11-07T09:19:19.280Z,101208.36
2017-11-07T09:20:26.378Z,101210.45
2017-11-07T09:21:32.412Z,101206.98
2017-11-07T09:22:38.238Z,101206.95
2017-11-07T09:23:44.781Z,101201.09
2017-11-07T09:24:51.098Z,101200.33
2017-11-07T09:25:56.873Z,101198.60
2017-11-07T09:27:02.723Z,101203.42
2017-11-07T09:28:08.597Z,101195.44
2017-11-07T09:29:14.608Z,101191.87
2017-11-07T09:30:20.361Z,101188.73
2017-11-07T09:31:26.545Z,101189.80
2017-11-07T09:32:32.297Z,101189.25
2017-11-07T09:33:38.325Z,101191.59
2017-11-07T09:34:44.895Z,101187.78
2017-11-07T09:35:50.661Z,101193.42
2017-11-07T09:36:56.482Z,101188.70
2017-11-07T09:38:02.424Z,101186.44
2017-11-07T09:39:08.272Z,101189.22
2017-11-07T09:40:14.180Z,101183.48
2017-11-07T09:41:20.040Z,101187.70
2017-11-07T09:42:26.686Z,101188.09
2017-11-07T09:43:33.493Z,101189.25
2017-11-07T09:44:40.318Z,101186.48
2017-11-07T09:45:46.718Z,101186.63
2017-11-07T09:46:52.540Z,101183.22
2017-11-07T09:47:59.142Z,101180.13
2017-11-07T09:49:05.008Z,101180.25
2017-11-07T09:50:10.903Z,101182.63
2017-11-07T09:51:16.814Z,101186.39
2017-11-07T09:52:23.641Z,101174.40
2017-11-07T09:53:29.420Z,101175.89
2017-11-07T09:54:35.942Z,101174.12
2017-11-07T09:55:41.759Z,101177.45
2017-11-07T09:56:47.502Z,101169.85
2017-11-07T09:57:53.345Z,101172.14
2017-11-07T09:58:59.129Z,101171.41
2017-11-07T10:00:05.034Z,101165.30
2017-11-07T10:01:10.796Z,101168.36
2017-11-07T10:02:16.816Z,101169.42
2017-11-07T10:03:23.138Z,101168.69
2017-11-07T10:04:29.273Z,101168.02
2017-11-07T10:05:36.284Z,101164.14
2017-11-07T10:06:42.101Z,101161.36
2017-11-07T10:07:47.878Z,101164.77
2017-11-07T10:08:53.661Z,101160.92
2017-11-07T10:09:59.280Z,101170.96
2017-11-07T10:11:05.134Z,101162.66
2017-11-07T10:12:10.897Z,101165.28
2017-11-07T10:13:16.669Z,101158.54
2017-11-07T10:14:23.372Z,101161.52
2017-11-07T10:15:29.193Z,101161.90
2017-11-07T10:16:34.762Z,101167.05
2017-11-07T10:17:39.829Z,101163.50
2017-11-07T10:18:45.638Z,101154.80
2017-11-07T10:19:51.462Z,101155.91
2017-11-07T10:20:57.514Z,101153.09
2017-11-07T10:22:03.129Z,101144.55
2017-11-07T10:23:09.695Z,101148.84
2017-11-07T10:24:16.434Z,101148.21
2017-11-07T10:25:22.333Z,101146.05
2017-11-07T10:26:28.530Z,101141.59
2017-11-07T10:27:34.419Z,101134.75
2017-11-07T10:28:40.294Z,101138.78
2017-11-07T10:29:45.723Z,101139.03
2017-11-07T10:30:51.502Z,101141.31
2017-11-07T10:31:58.200Z,101137.12
2017-11-07T10:33:03.981Z,101137.45
2017-11-07T10:34:09.728Z,101137.45
2017-11-07T10:35:15.332Z,101135.16
2017-11-07T10:36:20.950Z,101136.57
2017-11-07T10:37:26.990Z,101137.47
2017-11-07T10:38:33.177Z,101135.45
2017-11-07T10:39:38.993Z,101131.75
2017-11-07T10:40:44.740Z,101129.91
2017-11-07T10:41:50.516Z,101131.30
2017-11-07T10:42:56.371Z,101124.09
2017-11-07T10:44:02.141Z,101118.53
2017-11-07T10:45:08.704Z,101117.03
2017-11-07T10:46:15.269Z,101121.30
2017-11-07T10:47:21.802Z,101122.25
2017-11-07T10:48:27.585Z,101114.93
2017-11-07T10:49:33.167Z,101114.84
2017-11-07T10:50:38.982Z,101112.30
2017-11-07T10:51:44.805Z,101107.13
2017-11-07T10:52:50.585Z,101109.39
2017-11-07T10:53:56.477Z,101107.72
2017-11-07T10:55:01.959Z,101105.09
2017-11-07T10:56:07.281Z,101109.17
2017-11-07T10:57:12.393Z,101099.72
2017-11-07T10:58:17.985Z,101094.89
2017-11-07T10:59:23.954Z,101093.69
2017-11-07T11:00:29.534Z,101093.06
2017-11-07T11:01:35.422Z,101093.12
2017-11-07T11:02:41.525Z,101088.49
2017-11-07T11:03:47.330Z,101090.59
2017-11-07T11:04:52.760Z,101083.77
2017-11-07T11:05:59.835Z,101086.06
2017-11-07T11:07:07.227Z,101082.16
2017-11-07T11:08:13.772Z,101076.77
2017-11-07T11:09:19.537Z,101076.60
2017-11-07T11:10:25.918Z,101079.53
2017-11-07T11:11:31.756Z,101079.95
2017-11-07T11:12:37.549Z,101076.80
2017-11-07T11:13:43.227Z,101074.92
2017-11-07T11:14:49.765Z,101073.09
2017-11-07T11:15:55.720Z,101068.98
2017-11-07T11:17:01.513Z,101068.35
2017-11-07T11:18:07.306Z,101069.36
2017-11-07T11:19:13.882Z,101070.25
2017-11-07T11:20:19.926Z,101066.08
2017-11-07T11:21:26.537Z,101067.00
2017-11-07T11:22:32.293Z,101066.24
2017-11-07T11:23:38.089Z,101065.88
2017-11-07T11:24:43.910Z,101063.72
2017-11-07T11:25:50.473Z,101061.88
2017-11-07T11:26:57.062Z,101056.38
2017-11-07T11:28:02.872Z,101057.53
2017-11-07T11:29:09.768Z,101055.31
2017-11-07T11:30:15.561Z,101045.45
2017-11-07T11:31:21.555Z,101049.22
2017-11-07T11:32:27.240Z,101047.81
2017-11-07T11:33:34.101Z,101047.98
2017-11-07T11:34:39.900Z,101046.98
2017-11-07T11:35:45.670Z,101045.86
2017-11-07T11:36:51.429Z,101041.97
2017-11-07T11:37:57.224Z,101045.09
2017-11-07T11:39:02.984Z,101042.35
2017-11-07T11:40:08.752Z,101038.40
2017-11-07T11:41:14.508Z,101041.00
2017-11-07T11:42:20.321Z,101035.03
2017-11-07T11:43:26.099Z,101033.84
2017-11-07T11:44:31.863Z,101032.34
2017-11-07T11:45:37.922Z,101040.65
2017-11-07T11:46:43.741Z,101029.02
2017-11-07T11:47:49.600Z,101036.11
2017-11-07T11:48:55.660Z,101031.61
2017-11-07T11:50:01.594Z,101033.83
2017-11-07T11:51:08.272Z,101028.98
2017-11-07T11:52:14.124Z,101031.98
2017-11-07T11:53:19.912Z,101033.21
2017-11-07T11:54:25.453Z,101031.98
2017-11-07T11:55:31.293Z,101026.30
2017-11-07T11:56:37.069Z,101024.74
2017-11-07T11:57:43.782Z,101019.48
2017-11-07T11:58:49.380Z,101021.91
2017-11-07T11:59:55.224Z,101018.85
2017-11-07T12:01:00.650Z,101013.37
2017-11-07T12:02:06.582Z,101009.50
2017-11-07T12:03:12.777Z,101011.21
2017-11-07T12:04:18.594Z,101008.91
2017-11-07T12:05:24.373Z,101010.53
2017-11-07T12:06:30.181Z,101005.28
2017-11-07T12:07:35.944Z,101005.97
2017-11-07T12:08:41.848Z,101002.98
2017-11-07T12:09:48.650Z,101000.66
2017-11-07T12:10:54.794Z,101003.32
2017-11-07T12:12:01.142Z,101004.39
2017-11-07T12:13:07.089Z,100987.05
2017-11-07T12:14:13.143Z,100992.99
2017-11-07T12:15:19.654Z,100988.63
2017-11-07T12:16:26.425Z,100987.08
2017-11-07T12:17:33.295Z,100996.29
2017-11-07T12:18:39.218Z,100984.91
2017-11-07T12:19:45.000Z,100984.66
2017-11-07T12:20:51.525Z,100988.30
2017-11-07T12:21:57.419Z,100984.45
2017-11-07T12:23:03.177Z,100981.61
2017-11-07T12:24:08.934Z,100974.20
2017-11-07T12:25:14.693Z,100984.72
2017-11-07T12:26:20.297Z,100976.72
2017-11-07T12:27:26.097Z,100978.92
2017-11-07T12:28:32.858Z,100976.47
2017-11-07T12:29:38.795Z,100978.78
2017-11-07T12:30:44.782Z,100969.00
2017-11-07T12:31:50.727Z,100971.69
2017-11-07T12:32:56.728Z,100967.02